createdAt,value
2017-12-30T00:00:45.964Z,0.10
2017-12-30T00:03:14.083Z,0.10
2017-12-30T00:05:42.278Z,0.10
2017-12-30T00:08:11.166Z,0.10
2017-12-30T00:10:40.079Z,0.20
2017-12-30T00:13:08.238Z,0.20
2017-12-30T00:15:37.163Z,0.30
2017-12-30T00:18:05.322Z,0.20
2017-12-30T00:20:33.457Z,0.30
2017-12-30T00:23:01.627Z,0.30
2017-12-30T00:25:29.803Z,0.40
2017-12-30T00:27:57.951Z,0.50
2017-12-30T00:30:26.192Z,0.50
2017-12-30T00:32:54.353Z,0.50
2017-12-30T00:35:22.459Z,0.50
2017-12-30T00:37:50.734Z,0.60
2017-12-30T00:40:18.961Z,0.70
2017-12-30T00:42:47.076Z,0.70
2017-12-30T00:45:15.213Z,0.70
2017-12-30T00:47:43.341Z,0.70
2017-12-30T00:50:12.242Z,0.80
2017-12-30T00:52:40.398Z,0.70
2017-12-30T00:55:08.503Z,0.80
2017-12-30T00:57:36.617Z,0.90
2017-12-30T01:00:04.744Z,0.90
2017-12-30T01:02:33.617Z,0.90
2017-12-30T01:05:02.502Z,0.90
2017-12-30T01:07:30.628Z,1.00
2017-12-30T01:09:58.860Z,1.00
2017-12-30T01:12:26.993Z,1.00
2017-12-30T01:14:55.109Z,1.00
2017-12-30T01:17:23.248Z,1.10
2017-12-30T01:19:51.405Z,1.10
2017-12-30T01:22:19.536Z,1.10
2017-12-30T01:24:47.656Z,1.10
2017-12-30T01:27:15.790Z,1.10
2017-12-30T01:29:43.942Z,1.10
2017-12-30T01:32:12.057Z,1.10
2017-12-30T01:34:40.199Z,1.10
2017-12-30T01:37:08.314Z,1.10
2017-12-30T01:39:36.442Z,1.10
2017-12-30T01:42:04.564Z,1.10
2017-12-30T01:44:32.686Z,1.10
2017-12-30T01:47:00.829Z,1.10
2017-12-30T01:49:29.078Z,1.20
2017-12-30T01:51:57.212Z,1.20
2017-12-30T01:54:25.357Z,1.20
2017-12-30T01:56:53.477Z,1.20
2017-12-30T01:59:21.582Z,1.20
2017-12-30T02:01:49.721Z,1.20
2017-12-30T02:04:17.829Z,1.30
2017-12-30T02:06:45.960Z,1.20
2017-12-30T02:09:14.081Z,1.30
2017-12-30T02:11:42.214Z,1.30
2017-12-30T02:14:10.420Z,1.30
2017-12-30T02:16:38.701Z,1.30
2017-12-30T02:19:06.828Z,1.30
2017-12-30T02:21:34.966Z,1.40
2017-12-30T02:24:03.117Z,1.40
2017-12-30T02:26:31.246Z,1.40
2017-12-30T02:28:59.393Z,1.30
2017-12-30T02:31:27.553Z,1.40
2017-12-30T02:33:55.683Z,1.40
2017-12-30T02:36:24.569Z,1.40
2017-12-30T02:38:53.468Z,1.40
2017-12-30T02:41:21.604Z,1.40
2017-12-30T02:43:50.545Z,1.40
2017-12-30T02:46:18.676Z,1.40
2017-12-30T02:48:46.815Z,1.40
2017-12-30T02:51:14.927Z,1.50
2017-12-30T02:53:43.071Z,1.50
2017-12-30T02:56:11.198Z,1.60
2017-12-30T02:58:39.320Z,1.60
2017-12-30T03:01:08.216Z,1.50
2017-12-30T03:03:36.359Z,1.50
2017-12-30T03:06:04.505Z,1.50
2017-12-30T03:08:32.620Z,1.50
2017-12-30T03:11:00.777Z,1.50
2017-12-30T03:13:28.920Z,1.50
2017-12-30T03:15:57.065Z,1.50
2017-12-30T03:18:25.961Z,1.50
2017-12-30T03:20:54.871Z,1.60
2017-12-30T03:23:22.992Z,1.50
2017-12-30T03:25:51.317Z,1.60
2017-12-30T03:28:19.433Z,1.60
2017-12-30T03:30:47.555Z,1.60
2017-12-30T03:33:15.684Z,1.50
2017-12-30T03:35:43.809Z,1.50
2017-12-30T03:38:11.944Z,1.60
2017-12-30T04:24:20.624Z,1.60
2017-12-30T04:26:48.753Z,1.60
2017-12-30T04:29:16.878Z,1.50
2017-12-30T04:31:45.775Z,1.50
2017-12-30T04:34:13.899Z,1.40
2017-12-30T04:36:42.176Z,1.40
2017-12-30T04:39:10.252Z,1.50
2017-12-30T04:41:38.381Z,1.40
2017-12-30T04:44:06.496Z,1.40
2017-12-30T04:46:34.636Z,1.50
2017-12-30T04:49:02.759Z,1.40
2017-12-30T04:51:31.733Z,1.40
2017-12-30T04:53:59.859Z,1.40
2017-12-30T04:56:27.968Z,1.40
2017-12-30T04:58:56.100Z,1.50
2017-12-30T05:01:24.225Z,1.50
2017-12-30T05:03:53.144Z,1.40
2017-12-30T05:06:21.272Z,1.40
2017-12-30T05:08:49.415Z,1.40
2017-12-30T05:11:17.533Z,1.40
2017-12-30T05:13:45.665Z,1.40
2017-12-30T05:16:13.780Z,1.40
2017-12-30T05:18:42.084Z,1.40
2017-12-30T05:21:10.343Z,1.30
2017-12-30T05:23:38.476Z,1.20
2017-12-30T05:26:06.628Z,1.30
2017-12-30T05:28:34.784Z,1.20
2017-12-30T05:31:02.929Z,1.20
2017-12-30T05:33:31.880Z,1.20
2017-12-30T05:35:59.999Z,1.20
2017-12-30T05:38:28.910Z,1.20
2017-12-30T05:40:57.030Z,1.20
2017-12-30T05:43:25.145Z,1.10
2017-12-30T05:45:53.281Z,1.20
2017-12-30T05:48:22.184Z,1.20
2017-12-30T05:50:51.060Z,1.20
2017-12-30T05:53:19.962Z,1.10
2017-12-30T05:55:48.848Z,1.10
2017-12-30T05:58:17.740Z,1.10
2017-12-30T06:00:46.631Z,1.10
2017-12-30T06:03:15.535Z,1.10
2017-12-30T06:05:43.644Z,1.10
2017-12-30T06:08:11.776Z,1.00
2017-12-30T06:10:39.913Z,1.00
2017-12-30T06:13:08.056Z,0.90
2017-12-30T06:15:36.188Z,0.90
2017-12-30T06:18:04.330Z,1.00
2017-12-30T06:20:32.465Z,0.90
2017-12-30T06:23:00.580Z,0.90
2017-12-30T06:25:29.474Z,1.00
2017-12-30T06:27:58.358Z,1.00
2017-12-30T06:30:27.256Z,1.00
2017-12-30T06:32:55.552Z,1.00
2017-12-30T06:35:23.687Z,1.10
2017-12-30T06:37:51.810Z,1.20
2017-12-30T06:40:19.936Z,1.30
2017-12-30T06:42:48.066Z,1.30
2017-12-30T06:45:16.188Z,1.30
2017-12-30T06:47:45.082Z,1.30
2017-12-30T06:50:14.083Z,1.30
2017-12-30T06:52:42.221Z,1.30
2017-12-30T06:55:10.349Z,1.20
2017-12-30T06:57:38.457Z,1.20
2017-12-30T07:00:06.620Z,1.20
2017-12-30T07:02:34.720Z,1.20
2017-12-30T07:05:03.629Z,1.30
2017-12-30T07:07:31.752Z,1.20
2017-12-30T07:09:59.923Z,1.30
2017-12-30T07:12:28.054Z,1.20
2017-12-30T07:14:56.200Z,1.20
2017-12-30T07:17:24.493Z,1.30
2017-12-30T07:19:52.800Z,1.20
2017-12-30T07:22:20.934Z,1.10
2017-12-30T07:24:49.044Z,1.10
2017-12-30T07:27:17.175Z,1.10
2017-12-30T07:29:45.300Z,1.10
2017-12-30T07:32:13.433Z,1.10
2017-12-30T07:34:41.556Z,1.10
2017-12-30T07:37:10.457Z,1.10
2017-12-30T07:39:38.582Z,1.10
2017-12-30T07:42:06.725Z,1.10
2017-12-30T07:44:35.002Z,1.10
2017-12-30T07:47:03.274Z,1.10
2017-12-30T07:49:31.441Z,1.10
2017-12-30T07:51:59.580Z,1.10
2017-12-30T07:54:27.716Z,1.10
2017-12-30T07:56:55.878Z,1.10
2017-12-30T07:59:24.013Z,1.10
2017-12-30T08:01:52.892Z,1.10
2017-12-30T08:04:21.135Z,1.10
2017-12-30T08:06:49.257Z,1.20
2017-12-30T08:09:17.397Z,1.20
2017-12-30T08:11:45.514Z,1.20
2017-12-30T08:14:13.633Z,1.10
2017-12-30T08:16:41.776Z,1.20
2017-12-30T08:19:09.904Z,1.20
2017-12-30T08:21:38.796Z,1.30
2017-12-30T08:24:06.950Z,1.30
2017-12-30T08:26:35.076Z,1.40
2017-12-30T08:29:03.188Z,1.40
2017-12-30T08:31:31.316Z,1.50
2017-12-30T08:33:59.444Z,1.40
2017-12-30T08:36:28.422Z,1.50
2017-12-30T08:38:56.602Z,1.50
2017-12-30T08:41:24.808Z,1.60
2017-12-30T08:43:53.013Z,1.50
2017-12-30T08:46:21.194Z,1.50
2017-12-30T08:48:50.225Z,1.60
2017-12-30T08:51:18.392Z,1.60
2017-12-30T08:53:46.516Z,1.60
2017-12-30T08:56:14.626Z,1.60
2017-12-30T08:58:42.836Z,1.60
2017-12-30T09:01:10.981Z,1.60
2017-12-30T09:03:39.919Z,1.70
2017-12-30T09:06:08.157Z,1.60
2017-12-30T09:08:36.358Z,1.70
2017-12-30T09:11:04.544Z,1.70
2017-12-30T09:13:32.720Z,1.70
2017-12-30T09:16:00.852Z,1.70
2017-12-30T09:18:28.990Z,1.80
2017-12-30T09:20:57.104Z,1.90
2017-12-30T09:23:25.236Z,1.90
2017-12-30T09:25:54.124Z,2.00
2017-12-30T09:28:23.037Z,2.00
2017-12-30T09:30:51.168Z,2.00
2017-12-30T09:33:19.284Z,2.10
2017-12-30T09:35:47.420Z,2.00
2017-12-30T09:38:15.570Z,2.10
2017-12-30T09:40:43.694Z,2.00
2017-12-30T09:43:11.804Z,2.10
2017-12-30T09:45:39.964Z,2.10
2017-12-30T09:48:08.076Z,2.10
2017-12-30T09:50:36.228Z,2.00
2017-12-30T09:53:04.332Z,2.00
2017-12-30T09:55:33.249Z,1.90
2017-12-30T09:58:01.378Z,1.90
2017-12-30T10:00:29.518Z,1.90
2017-12-30T10:02:57.673Z,1.90
2017-12-30T10:05:25.805Z,1.90
2017-12-30T10:07:54.705Z,2.00
2017-12-30T10:10:23.609Z,2.00
2017-12-30T10:12:51.777Z,2.00
2017-12-30T10:15:19.920Z,2.00
2017-12-30T10:17:48.048Z,2.00
2017-12-30T10:20:16.172Z,2.00
2017-12-30T10:22:45.088Z,2.00
2017-12-30T10:25:13.212Z,2.00
2017-12-30T10:27:41.360Z,2.00
2017-12-30T10:30:09.460Z,2.00
2017-12-30T10:32:37.576Z,2.00
2017-12-30T10:35:05.715Z,2.00
2017-12-30T10:37:34.612Z,1.90
2017-12-30T10:40:02.761Z,1.90
2017-12-30T10:42:30.870Z,2.00
2017-12-30T10:44:59.003Z,2.00
2017-12-30T10:47:27.894Z,2.00
2017-12-30T10:49:56.838Z,2.10
2017-12-30T10:52:24.953Z,2.10
2017-12-30T10:54:53.118Z,2.10
2017-12-30T10:57:21.245Z,2.10
2017-12-30T10:59:49.384Z,2.10
2017-12-30T11:02:18.261Z,2.10
2017-12-30T11:04:46.406Z,2.10
2017-12-30T11:07:14.554Z,2.30
2017-12-30T11:09:42.688Z,2.20
2017-12-30T11:12:10.812Z,2.20
2017-12-30T11:14:38.938Z,2.30
2017-12-30T11:17:07.826Z,2.30
2017-12-30T11:19:36.722Z,2.40
2017-12-30T11:22:04.853Z,2.30
2017-12-30T11:24:32.979Z,2.30
2017-12-30T11:27:01.105Z,2.30
2017-12-30T11:29:30.798Z,2.40
2017-12-30T11:31:58.912Z,2.40
2017-12-30T11:34:27.842Z,2.40
2017-12-30T11:36:55.996Z,2.40
2017-12-30T11:39:24.217Z,2.30
2017-12-30T11:41:52.377Z,2.30
2017-12-30T11:44:20.501Z,2.40
2017-12-30T11:46:48.665Z,2.30
2017-12-30T11:49:16.785Z,2.40
2017-12-30T11:51:45.019Z,2.40
2017-12-30T11:54:13.152Z,2.50
2017-12-30T11:56:41.266Z,2.40
2017-12-30T11:59:09.396Z,2.40
2017-12-30T12:01:37.517Z,2.40
2017-12-30T12:04:05.657Z,2.40
2017-12-30T12:06:33.777Z,2.40
2017-12-30T12:09:01.920Z,2.40
2017-12-30T12:11:30.029Z,2.50
2017-12-30T12:13:58.204Z,2.40
2017-12-30T12:16:26.343Z,2.50
2017-12-30T12:18:54.444Z,2.60
2017-12-30T12:21:23.428Z,2.60
2017-12-30T12:23:51.670Z,2.50
2017-12-30T12:26:19.805Z,2.50
2017-12-30T12:28:47.918Z,2.50
2017-12-30T12:31:16.070Z,2.60
2017-12-30T12:33:44.183Z,2.60
2017-12-30T12:36:12.346Z,2.60
2017-12-30T12:38:40.498Z,2.70
2017-12-30T12:41:08.690Z,2.70
2017-12-30T12:43:36.791Z,2.70
2017-12-30T12:46:04.931Z,2.60
2017-12-30T12:48:33.065Z,2.70
2017-12-30T12:51:01.957Z,2.80
2017-12-30T12:53:30.882Z,2.70
2017-12-30T12:55:59.045Z,2.70
2017-12-30T12:58:27.188Z,2.70
2017-12-30T13:00:56.159Z,2.80
2017-12-30T13:03:24.355Z,2.80
2017-12-30T13:05:52.473Z,2.80
2017-12-30T13:08:21.380Z,2.70
2017-12-30T13:10:49.714Z,2.70
2017-12-30T13:13:17.852Z,2.80
2017-12-30T13:15:45.986Z,2.80
2017-12-30T13:18:14.104Z,2.80
2017-12-30T13:20:42.282Z,3.00
2017-12-30T13:23:11.283Z,2.90
2017-12-30T13:25:39.413Z,2.90
2017-12-30T13:28:07.548Z,3.00
2017-12-30T13:30:35.698Z,3.00
2017-12-30T13:33:03.818Z,3.10
2017-12-30T13:35:31.959Z,3.10
2017-12-30T13:38:00.105Z,3.10
2017-12-30T13:40:28.229Z,3.20
2017-12-30T13:42:56.370Z,3.30
2017-12-30T13:45:24.498Z,3.30
2017-12-30T13:47:53.401Z,3.30
2017-12-30T13:50:21.529Z,3.30
2017-12-30T13:52:49.678Z,3.40
2017-12-30T13:55:17.803Z,3.50
2017-12-30T13:57:46.709Z,3.60
2017-12-30T14:00:14.954Z,3.60
2017-12-30T14:02:43.101Z,3.60
2017-12-30T14:05:11.981Z,3.80
2017-12-30T14:07:40.485Z,3.80
2017-12-30T14:10:08.834Z,3.80
2017-12-30T14:12:36.988Z,3.90
2017-12-30T14:15:05.133Z,3.90
2017-12-30T14:17:34.052Z,4.00
2017-12-30T14:20:02.200Z,4.00
2017-12-30T14:22:31.073Z,4.20
2017-12-30T14:24:59.980Z,4.20
2017-12-30T14:27:28.971Z,4.20
2017-12-30T14:29:57.974Z,4.20
2017-12-30T14:32:26.158Z,4.10
2017-12-30T14:34:54.269Z,4.20
2017-12-30T14:37:22.400Z,4.30
2017-12-30T14:39:50.554Z,4.20
2017-12-30T14:42:19.437Z,4.20
2017-12-30T14:44:48.337Z,4.20
2017-12-30T14:47:16.488Z,4.20
2017-12-30T14:49:44.600Z,4.20
2017-12-30T14:52:12.765Z,4.30
2017-12-30T14:54:41.304Z,4.30
2017-12-30T14:57:09.430Z,4.30
2017-12-30T14:59:37.540Z,4.30
2017-12-30T15:02:05.652Z,4.40
2017-12-30T15:04:33.798Z,4.40
2017-12-30T15:07:01.914Z,4.40
2017-12-30T15:09:30.037Z,4.50
2017-12-30T15:11:58.917Z,4.50
2017-12-30T15:14:27.049Z,4.50
2017-12-30T15:16:55.206Z,4.50
2017-12-30T15:19:23.344Z,4.70
2017-12-30T15:21:52.225Z,4.60
2017-12-30T15:24:21.105Z,4.60
2017-12-30T15:26:49.237Z,4.60
2017-12-30T15:29:17.396Z,4.60
2017-12-30T15:31:45.544Z,4.60
2017-12-30T15:34:14.467Z,4.70
2017-12-30T15:36:43.328Z,4.70
2017-12-30T15:39:11.440Z,4.80
2017-12-30T15:44:13.880Z,4.70
2017-12-30T15:46:42.822Z,4.70
2017-12-30T15:49:10.934Z,4.70
2017-12-30T15:51:39.835Z,4.80
2017-12-30T15:54:07.986Z,4.80
2017-12-30T15:56:36.938Z,4.90
2017-12-30T15:59:05.406Z,4.90
2017-12-30T16:01:33.563Z,4.80
2017-12-30T16:04:01.702Z,4.80
2017-12-30T16:06:30.589Z,4.80
2017-12-30T16:08:59.539Z,4.80
2017-12-30T16:11:27.648Z,4.80
2017-12-30T16:13:55.784Z,4.80
2017-12-30T16:16:24.147Z,4.80
2017-12-30T16:18:53.772Z,4.80
2017-12-30T16:21:22.252Z,4.90
2017-12-30T16:23:50.383Z,4.80
2017-12-30T16:26:18.492Z,4.80
2017-12-30T16:28:46.652Z,4.90
2017-12-30T16:31:14.833Z,4.90
2017-12-30T16:33:43.008Z,5.00
2017-12-30T16:36:11.120Z,5.10
2017-12-30T16:38:40.029Z,5.10
2017-12-30T16:41:08.160Z,5.10
2017-12-30T16:43:36.345Z,5.20
2017-12-30T16:46:04.508Z,5.20
2017-12-30T16:48:32.626Z,5.20
2017-12-30T16:51:00.747Z,5.30
2017-12-30T16:53:28.874Z,5.10
2017-12-30T16:55:57.004Z,5.20
2017-12-30T16:58:25.400Z,5.20
2017-12-30T17:00:53.845Z,5.20
2017-12-30T17:03:21.949Z,5.30
2017-12-30T17:05:50.876Z,5.50
2017-12-30T17:08:19.072Z,5.40
2017-12-30T17:10:47.279Z,5.50
2017-12-30T17:13:15.436Z,5.60
2017-12-30T17:15:44.382Z,5.70
2017-12-30T17:18:12.593Z,5.60
2017-12-30T17:20:41.548Z,6.00
2017-12-30T17:23:09.690Z,5.90
2017-12-30T17:25:37.789Z,6.00
2017-12-30T17:28:05.975Z,6.00
2017-12-30T17:30:34.098Z,6.00
2017-12-30T17:33:02.225Z,6.10
2017-12-30T17:35:30.383Z,6.10
2017-12-30T17:37:58.557Z,6.10
2017-12-30T17:40:26.693Z,6.10
2017-12-30T17:42:54.863Z,6.10
2017-12-30T17:45:23.776Z,6.10
2017-12-30T17:47:51.946Z,6.10
2017-12-30T17:50:20.116Z,6.10
2017-12-30T17:52:48.265Z,6.10
2017-12-30T17:55:17.136Z,6.30
2017-12-30T17:57:46.077Z,6.30
2017-12-30T18:00:14.212Z,6.30
2017-12-30T18:02:43.140Z,6.40
2017-12-30T18:05:11.238Z,6.40
2017-12-30T18:07:39.431Z,6.50
2017-12-30T18:10:07.587Z,6.80
2017-12-30T18:12:35.769Z,6.80
2017-12-30T18:15:03.936Z,6.80
2017-12-30T18:17:32.070Z,6.90
2017-12-30T18:20:00.184Z,6.80
2017-12-30T18:22:29.080Z,6.80
2017-12-30T18:24:58.032Z,6.70
2017-12-30T18:27:26.182Z,6.70
2017-12-30T18:29:54.329Z,6.80
2017-12-30T18:32:23.244Z,6.80
2017-12-30T18:34:51.404Z,6.70
2017-12-30T18:37:19.512Z,6.80
2017-12-30T18:39:47.747Z,6.70
2017-12-30T18:42:15.920Z,6.70
2017-12-30T18:44:44.012Z,6.80
2017-12-30T18:47:12.199Z,6.80
2017-12-30T18:49:40.350Z,6.70
2017-12-30T18:52:08.519Z,6.70
2017-12-30T18:54:36.719Z,6.80
2017-12-30T18:57:04.884Z,6.80
2017-12-30T18:59:33.031Z,6.90
2017-12-30T19:02:01.199Z,6.90
2017-12-30T19:04:29.330Z,6.90
2017-12-30T19:06:57.512Z,6.80
2017-12-30T19:09:26.608Z,6.70
2017-12-30T19:11:55.471Z,6.80
2017-12-30T19:14:23.646Z,6.80
2017-12-30T19:16:51.773Z,6.90
2017-12-30T19:19:19.908Z,6.90
2017-12-30T19:21:48.788Z,6.90
2017-12-30T19:24:16.984Z,6.90
2017-12-30T19:26:45.984Z,7.00
2017-12-30T19:29:14.160Z,7.00
2017-12-30T19:31:43.069Z,7.10
2017-12-30T19:34:11.165Z,7.00
2017-12-30T19:36:39.344Z,7.20
2017-12-30T19:39:07.503Z,7.00
2017-12-30T19:41:35.684Z,7.10
2017-12-30T19:44:03.833Z,7.20
2017-12-30T19:46:32.020Z,7.20
2017-12-30T19:49:00.169Z,7.30
2017-12-30T19:51:29.340Z,7.40
2017-12-30T19:53:57.500Z,7.60
2017-12-30T19:56:26.551Z,7.50
2017-12-30T19:58:54.724Z,7.50
2017-12-30T20:01:22.899Z,7.50
2017-12-30T20:03:51.045Z,7.40
2017-12-30T20:06:19.240Z,7.50
2017-12-30T20:08:47.400Z,7.40
2017-12-30T20:11:15.557Z,7.50
2017-12-30T20:13:43.762Z,7.40
2017-12-30T20:16:11.951Z,7.60
2017-12-30T20:18:40.108Z,7.60
2017-12-30T20:21:08.271Z,7.60
2017-12-30T20:23:36.483Z,7.70
2017-12-30T20:26:05.418Z,7.60
2017-12-30T20:28:33.604Z,7.60
2017-12-30T20:31:01.788Z,7.60
2017-12-30T20:33:29.951Z,7.50
2017-12-30T20:35:58.109Z,7.40
2017-12-30T20:38:26.267Z,7.40
2017-12-30T20:40:54.440Z,7.40
2017-12-30T20:43:22.617Z,7.40
2017-12-30T20:45:50.783Z,7.50
2017-12-30T20:48:18.965Z,7.50
2017-12-30T20:50:47.224Z,7.40
2017-12-30T20:53:15.390Z,7.40
2017-12-30T20:55:44.346Z,7.50
2017-12-30T20:58:12.496Z,7.50
2017-12-30T21:00:40.705Z,7.60
2017-12-30T21:03:09.645Z,7.50
2017-12-30T21:05:37.829Z,7.60
2017-12-30T21:08:05.977Z,7.50
2017-12-30T21:10:34.264Z,7.60
2017-12-30T21:13:02.417Z,7.60
2017-12-30T21:15:30.610Z,7.60
2017-12-30T21:17:58.769Z,7.80
2017-12-30T21:20:26.920Z,7.80
2017-12-30T21:22:55.861Z,7.80
2017-12-30T21:25:24.020Z,7.80
2017-12-30T21:27:52.194Z,7.80
2017-12-30T21:30:20.363Z,7.90
2017-12-30T21:32:48.537Z,7.90
2017-12-30T21:35:16.683Z,8.00
2017-12-30T21:37:44.854Z,8.00
2017-12-30T21:40:13.022Z,8.00
2017-12-30T21:42:41.953Z,8.10
2017-12-30T21:45:10.109Z,8.10
2017-12-30T21:47:38.302Z,8.10
2017-12-30T21:50:06.455Z,8.20
2017-12-30T21:52:34.595Z,8.10
2017-12-30T21:55:03.788Z,8.30
2017-12-30T21:57:32.699Z,8.30
2017-12-30T22:00:00.874Z,8.30
2017-12-30T22:02:29.024Z,8.30
2017-12-30T22:04:57.968Z,8.40
2017-12-30T22:07:26.129Z,8.40
2017-12-30T22:09:54.292Z,8.40
2017-12-30T22:12:22.452Z,8.40
2017-12-30T22:14:50.631Z,8.50
2017-12-30T22:17:18.803Z,8.50
2017-12-30T22:19:46.981Z,8.30
2017-12-30T22:22:15.135Z,8.30
2017-12-30T22:24:43.536Z,8.30
2017-12-30T22:27:11.692Z,8.50
2017-12-30T22:29:39.835Z,8.50
2017-12-30T22:32:08.004Z,8.50
2017-12-30T22:34:36.971Z,8.40
2017-12-30T22:37:05.168Z,8.40
2017-12-30T22:39:34.090Z,8.40
2017-12-30T22:42:02.280Z,8.40
2017-12-30T22:44:30.426Z,8.40
2017-12-30T22:46:58.624Z,8.40
2017-12-30T22:49:26.950Z,8.40
2017-12-30T22:51:55.138Z,8.40
2017-12-30T22:54:23.451Z,8.40
2017-12-30T22:56:51.625Z,8.40
2017-12-30T22:59:19.830Z,8.40
2017-12-30T23:01:47.975Z,8.40
2017-12-30T23:04:16.178Z,8.40
2017-12-30T23:06:44.341Z,8.30
2017-12-30T23:09:12.499Z,8.30
2017-12-30T23:11:40.736Z,8.30
2017-12-30T23:14:08.916Z,8.30
2017-12-30T23:16:37.075Z,8.20
2017-12-30T23:19:05.275Z,8.30
2017-12-30T23:21:33.451Z,8.30
2017-12-30T23:24:01.640Z,8.30
2017-12-30T23:26:29.785Z,8.40
2017-12-30T23:28:57.941Z,8.30
2017-12-30T23:31:26.259Z,8.50
2017-12-30T23:33:54.432Z,8.60
2017-12-30T23:36:22.590Z,8.70
2017-12-30T23:38:50.748Z,8.70
2017-12-30T23:41:19.024Z,8.70
2017-12-30T23:43:47.171Z,8.60
2017-12-30T23:46:15.340Z,8.70
2017-12-30T23:48:43.500Z,8.70
2017-12-30T23:51:12.476Z,8.80
2017-12-30T23:53:40.617Z,8.80
2017-12-30T23:56:08.772Z,8.80
2017-12-30T23:58:36.939Z,8.90
